sensor_id;sensor_type;location;lat;lon;timestamp;P1;durP1;ratioP1;P2;durP2;ratioP2
67696;SDS011;54486;51.442;6.778;2023-04-25T00:01:47;9.13;;;2.65;;
67696;SDS011;54486;51.442;6.778;2023-04-25T00:04:14;10.15;;;3.05;;
67696;SDS011;54486;51.442;6.778;2023-04-25T00:06:41;8.63;;;2.80;;
67696;SDS011;54486;51.442;6.778;2023-04-25T00:09:08;9.17;;;3.27;;
67696;SDS011;54486;51.442;6.778;2023-04-25T00:11:37;9.13;;;2.53;;
67696;SDS011;54486;51.442;6.778;2023-04-25T00:14:05;9.45;;;2.78;;
67696;SDS011;54486;51.442;6.778;2023-04-25T00:16:33;10.13;;;2.50;;
67696;SDS011;54486;51.442;6.778;2023-04-25T00:19:01;9.55;;;3.17;;
67696;SDS011;54486;51.442;6.778;2023-04-25T00:21:28;9.13;;;3.08;;
67696;SDS011;54486;51.442;6.778;2023-04-25T00:23:58;9.82;;;3.42;;
67696;SDS011;54486;51.442;6.778;2023-04-25T00:26:27;9.65;;;3.20;;
67696;SDS011;54486;51.442;6.778;2023-04-25T00:28:54;10.77;;;3.10;;
67696;SDS011;54486;51.442;6.778;2023-04-25T00:31:21;10.93;;;3.13;;
67696;SDS011;54486;51.442;6.778;2023-04-25T00:33:48;11.43;;;3.30;;
67696;SDS011;54486;51.442;6.778;2023-04-25T00:36:16;11.15;;;3.95;;
67696;SDS011;54486;51.442;6.778;2023-04-25T00:38:44;10.30;;;2.97;;
67696;SDS011;54486;51.442;6.778;2023-04-25T00:41:11;11.35;;;3.72;;
67696;SDS011;54486;51.442;6.778;2023-04-25T00:43:38;9.23;;;3.10;;
67696;SDS011;54486;51.442;6.778;2023-04-25T00:46:07;9.70;;;3.50;;
67696;SDS011;54486;51.442;6.778;2023-04-25T00:48:34;12.27;;;3.20;;
67696;SDS011;54486;51.442;6.778;2023-04-25T00:51:04;10.80;;;3.25;;
67696;SDS011;54486;51.442;6.778;2023-04-25T00:53:31;11.43;;;3.05;;
67696;SDS011;54486;51.442;6.778;2023-04-25T00:56:01;10.85;;;3.15;;
67696;SDS011;54486;51.442;6.778;2023-04-25T00:58:29;8.63;;;3.20;;
67696;SDS011;54486;51.442;6.778;2023-04-25T01:00:57;7.82;;;2.92;;
67696;SDS011;54486;51.442;6.778;2023-04-25T01:03:24;8.32;;;2.85;;
67696;SDS011;54486;51.442;6.778;2023-04-25T01:05:54;12.40;;;3.55;;
67696;SDS011;54486;51.442;6.778;2023-04-25T01:08:23;9.07;;;2.90;;
67696;SDS011;54486;51.442;6.778;2023-04-25T01:10:52;7.78;;;2.80;;
67696;SDS011;54486;51.442;6.778;2023-04-25T01:13:20;9.00;;;2.70;;
67696;SDS011;54486;51.442;6.778;2023-04-25T01:15:48;9.65;;;3.10;;
67696;SDS011;54486;51.442;6.778;2023-04-25T01:18:18;10.75;;;2.90;;
67696;SDS011;54486;51.442;6.778;2023-04-25T01:20:55;10.73;;;3.22;;
67696;SDS011;54486;51.442;6.778;2023-04-25T01:23:22;10.77;;;3.10;;
67696;SDS011;54486;51.442;6.778;2023-04-25T01:25:49;9.98;;;3.15;;
67696;SDS011;54486;51.442;6.778;2023-04-25T01:28:17;10.18;;;3.10;;
67696;SDS011;54486;51.442;6.778;2023-04-25T01:30:45;11.23;;;3.30;;
67696;SDS011;54486;51.442;6.778;2023-04-25T01:33:13;9.45;;;3.20;;
67696;SDS011;54486;51.442;6.778;2023-04-25T01:35:40;9.05;;;2.88;;
67696;SDS011;54486;51.442;6.778;2023-04-25T01:38:08;9.38;;;2.90;;
67696;SDS011;54486;51.442;6.778;2023-04-25T01:40:37;9.50;;;3.33;;
67696;SDS011;54486;51.442;6.778;2023-04-25T01:43:08;8.18;;;2.95;;
67696;SDS011;54486;51.442;6.778;2023-04-25T01:45:38;8.95;;;3.00;;
67696;SDS011;54486;51.442;6.778;2023-04-25T01:48:08;9.13;;;3.23;;
67696;SDS011;54486;51.442;6.778;2023-04-25T01:50:38;8.65;;;3.10;;
67696;SDS011;54486;51.442;6.778;2023-04-25T01:53:07;10.48;;;3.35;;
67696;SDS011;54486;51.442;6.778;2023-04-25T01:55:38;10.15;;;3.10;;
67696;SDS011;54486;51.442;6.778;2023-04-25T01:58:05;9.10;;;3.13;;
67696;SDS011;54486;51.442;6.778;2023-04-25T02:00:36;8.85;;;2.97;;
67696;SDS011;54486;51.442;6.778;2023-04-25T02:03:07;10.15;;;3.45;;
67696;SDS011;54486;51.442;6.778;2023-04-25T02:05:36;9.23;;;3.08;;
67696;SDS011;54486;51.442;6.778;2023-04-25T02:08:07;10.43;;;2.90;;
67696;SDS011;54486;51.442;6.778;2023-04-25T02:10:36;7.97;;;2.55;;
67696;SDS011;54486;51.442;6.778;2023-04-25T02:13:03;9.25;;;3.00;;
67696;SDS011;54486;51.442;6.778;2023-04-25T02:15:31;10.13;;;2.90;;
67696;SDS011;54486;51.442;6.778;2023-04-25T02:17:58;10.63;;;3.45;;
67696;SDS011;54486;51.442;6.778;2023-04-25T02:20:28;9.17;;;3.23;;
67696;SDS011;54486;51.442;6.778;2023-04-25T02:22:57;9.18;;;3.05;;
67696;SDS011;54486;51.442;6.778;2023-04-25T02:25:24;8.73;;;3.00;;
67696;SDS011;54486;51.442;6.778;2023-04-25T02:27:52;9.55;;;2.65;;
67696;SDS011;54486;51.442;6.778;2023-04-25T02:30:21;9.75;;;3.10;;
67696;SDS011;54486;51.442;6.778;2023-04-25T02:32:48;8.50;;;2.60;;
67696;SDS011;54486;51.442;6.778;2023-04-25T02:35:15;9.77;;;2.90;;
67696;SDS011;54486;51.442;6.778;2023-04-25T02:37:43;8.80;;;3.20;;
67696;SDS011;54486;51.442;6.778;2023-04-25T02:40:10;10.55;;;3.22;;
67696;SDS011;54486;51.442;6.778;2023-04-25T02:42:38;8.75;;;3.25;;
67696;SDS011;54486;51.442;6.778;2023-04-25T02:45:05;8.33;;;2.67;;
67696;SDS011;54486;51.442;6.778;2023-04-25T02:47:33;9.57;;;2.87;;
67696;SDS011;54486;51.442;6.778;2023-04-25T02:49:59;8.13;;;2.97;;
67696;SDS011;54486;51.442;6.778;2023-04-25T02:52:27;8.20;;;2.75;;
67696;SDS011;54486;51.442;6.778;2023-04-25T02:54:55;7.75;;;2.67;;
67696;SDS011;54486;51.442;6.778;2023-04-25T02:57:21;7.85;;;3.00;;
67696;SDS011;54486;51.442;6.778;2023-04-25T02:59:49;10.20;;;2.93;;
67696;SDS011;54486;51.442;6.778;2023-04-25T03:02:16;8.27;;;2.90;;
67696;SDS011;54486;51.442;6.778;2023-04-25T03:04:43;9.07;;;2.80;;
67696;SDS011;54486;51.442;6.778;2023-04-25T03:07:10;9.35;;;2.70;;
67696;SDS011;54486;51.442;6.778;2023-04-25T03:09:38;11.82;;;2.85;;
67696;SDS011;54486;51.442;6.778;2023-04-25T03:12:05;8.35;;;2.58;;
67696;SDS011;54486;51.442;6.778;2023-04-25T03:14:32;8.85;;;2.60;;
67696;SDS011;54486;51.442;6.778;2023-04-25T03:16:59;9.63;;;3.00;;
67696;SDS011;54486;51.442;6.778;2023-04-25T03:19:27;7.90;;;2.70;;
67696;SDS011;54486;51.442;6.778;2023-04-25T03:21:55;7.63;;;2.42;;
67696;SDS011;54486;51.442;6.778;2023-04-25T03:24:22;9.45;;;3.13;;
67696;SDS011;54486;51.442;6.778;2023-04-25T03:26:49;11.30;;;3.00;;
67696;SDS011;54486;51.442;6.778;2023-04-25T03:29:16;10.07;;;2.95;;
67696;SDS011;54486;51.442;6.778;2023-04-25T03:31:43;11.20;;;2.67;;
67696;SDS011;54486;51.442;6.778;2023-04-25T03:34:10;8.60;;;2.78;;
67696;SDS011;54486;51.442;6.778;2023-04-25T03:36:37;11.73;;;3.28;;
67696;SDS011;54486;51.442;6.778;2023-04-25T03:39:07;7.90;;;2.45;;
67696;SDS011;54486;51.442;6.778;2023-04-25T03:41:34;9.65;;;3.00;;
67696;SDS011;54486;51.442;6.778;2023-04-25T03:44:01;9.52;;;3.00;;
67696;SDS011;54486;51.442;6.778;2023-04-25T03:46:29;9.35;;;2.80;;
67696;SDS011;54486;51.442;6.778;2023-04-25T03:48:56;10.85;;;3.25;;
67696;SDS011;54486;51.442;6.778;2023-04-25T03:51:23;11.18;;;3.20;;
67696;SDS011;54486;51.442;6.778;2023-04-25T03:53:51;11.75;;;3.22;;
67696;SDS011;54486;51.442;6.778;2023-04-25T03:56:18;11.23;;;2.83;;
67696;SDS011;54486;51.442;6.778;2023-04-25T03:58:47;13.43;;;3.13;;
67696;SDS011;54486;51.442;6.778;2023-04-25T04:01:15;9.63;;;2.90;;
67696;SDS011;54486;51.442;6.778;2023-04-25T04:03:42;13.30;;;2.88;;
67696;SDS011;54486;51.442;6.778;2023-04-25T04:06:09;8.15;;;2.70;;
67696;SDS011;54486;51.442;6.778;2023-04-25T04:08:37;10.85;;;3.35;;
67696;SDS011;54486;51.442;6.778;2023-04-25T04:11:04;8.32;;;2.80;;
67696;SDS011;54486;51.442;6.778;2023-04-25T04:13:31;9.88;;;2.80;;
67696;SDS011;54486;51.442;6.778;2023-04-25T04:15:58;9.05;;;2.85;;
67696;SDS011;54486;51.442;6.778;2023-04-25T04:18:25;10.77;;;3.22;;
67696;SDS011;54486;51.442;6.778;2023-04-25T04:20:52;11.52;;;3.03;;
67696;SDS011;54486;51.442;6.778;2023-04-25T04:23:19;12.30;;;3.40;;
67696;SDS011;54486;51.442;6.778;2023-04-25T04:25:47;10.52;;;3.10;;
67696;SDS011;54486;51.442;6.778;2023-04-25T04:28:14;8.63;;;3.03;;
67696;SDS011;54486;51.442;6.778;2023-04-25T04:30:42;8.32;;;3.03;;
67696;SDS011;54486;51.442;6.778;2023-04-25T04:33:13;9.25;;;2.90;;
67696;SDS011;54486;51.442;6.778;2023-04-25T04:35:45;8.55;;;2.60;;
67696;SDS011;54486;51.442;6.778;2023-04-25T04:38:13;10.70;;;3.50;;
67696;SDS011;54486;51.442;6.778;2023-04-25T04:40:42;8.53;;;3.20;;
67696;SDS011;54486;51.442;6.778;2023-04-25T04:43:09;12.65;;;3.33;;
67696;SDS011;54486;51.442;6.778;2023-04-25T04:45:36;11.35;;;3.00;;
67696;SDS011;54486;51.442;6.778;2023-04-25T04:48:07;9.13;;;2.80;;
67696;SDS011;54486;51.442;6.778;2023-04-25T04:50:35;10.30;;;3.33;;
67696;SDS011;54486;51.442;6.778;2023-04-25T04:53:02;10.27;;;3.60;;
67696;SDS011;54486;51.442;6.778;2023-04-25T04:55:30;11.55;;;3.40;;
67696;SDS011;54486;51.442;6.778;2023-04-25T04:57:59;10.98;;;3.45;;
67696;SDS011;54486;51.442;6.778;2023-04-25T05:00:27;11.05;;;3.28;;
67696;SDS011;54486;51.442;6.778;2023-04-25T05:02:56;10.68;;;2.85;;
67696;SDS011;54486;51.442;6.778;2023-04-25T05:05:24;9.38;;;3.20;;
67696;SDS011;54486;51.442;6.778;2023-04-25T05:07:51;9.32;;;2.90;;
67696;SDS011;54486;51.442;6.778;2023-04-25T05:10:18;10.80;;;3.58;;
67696;SDS011;54486;51.442;6.778;2023-04-25T05:12:45;10.02;;;3.45;;
67696;SDS011;54486;51.442;6.778;2023-04-25T05:15:13;13.30;;;3.70;;
67696;SDS011;54486;51.442;6.778;2023-04-25T05:17:40;9.55;;;2.95;;
67696;SDS011;54486;51.442;6.778;2023-04-25T05:20:08;10.55;;;3.42;;
67696;SDS011;54486;51.442;6.778;2023-04-25T05:22:35;13.30;;;3.70;;
67696;SDS011;54486;51.442;6.778;2023-04-25T05:25:03;10.75;;;3.22;;
67696;SDS011;54486;51.442;6.778;2023-04-25T05:27:30;11.65;;;3.63;;
67696;SDS011;54486;51.442;6.778;2023-04-25T05:29:57;11.55;;;3.78;;
67696;SDS011;54486;51.442;6.778;2023-04-25T05:32:24;9.63;;;2.80;;
67696;SDS011;54486;51.442;6.778;2023-04-25T05:34:52;10.13;;;3.13;;
67696;SDS011;54486;51.442;6.778;2023-04-25T05:37:19;9.57;;;3.38;;
67696;SDS011;54486;51.442;6.778;2023-04-25T05:39:46;10.57;;;2.95;;
67696;SDS011;54486;51.442;6.778;2023-04-25T05:42:13;10.07;;;3.20;;
67696;SDS011;54486;51.442;6.778;2023-04-25T05:44:40;12.82;;;3.75;;
67696;SDS011;54486;51.442;6.778;2023-04-25T05:47:07;11.38;;;3.85;;
67696;SDS011;54486;51.442;6.778;2023-04-25T05:49:34;9.98;;;3.33;;
67696;SDS011;54486;51.442;6.778;2023-04-25T05:52:01;12.13;;;3.42;;
67696;SDS011;54486;51.442;6.778;2023-04-25T05:54:29;9.27;;;3.33;;
67696;SDS011;54486;51.442;6.778;2023-04-25T05:56:56;11.63;;;2.80;;
67696;SDS011;54486;51.442;6.778;2023-04-25T05:59:24;10.00;;;3.33;;
67696;SDS011;54486;51.442;6.778;2023-04-25T06:01:51;10.35;;;3.38;;
67696;SDS011;54486;51.442;6.778;2023-04-25T06:04:18;9.52;;;2.83;;
67696;SDS011;54486;51.442;6.778;2023-04-25T06:06:45;11.82;;;2.70;;
67696;SDS011;54486;51.442;6.778;2023-04-25T06:09:12;9.98;;;3.33;;
67696;SDS011;54486;51.442;6.778;2023-04-25T06:11:40;11.82;;;3.10;;
67696;SDS011;54486;51.442;6.778;2023-04-25T06:14:08;11.50;;;3.10;;
67696;SDS011;54486;51.442;6.778;2023-04-25T06:16:35;10.18;;;3.08;;
67696;SDS011;54486;51.442;6.778;2023-04-25T06:19:02;12.88;;;3.45;;
67696;SDS011;54486;51.442;6.778;2023-04-25T06:21:29;12.63;;;3.47;;
67696;SDS011;54486;51.442;6.778;2023-04-25T06:23:55;8.57;;;3.60;;
67696;SDS011;54486;51.442;6.778;2023-04-25T06:26:23;9.27;;;2.90;;
67696;SDS011;54486;51.442;6.778;2023-04-25T06:28:49;10.25;;;2.80;;
67696;SDS011;54486;51.442;6.778;2023-04-25T06:31:16;9.60;;;2.67;;
67696;SDS011;54486;51.442;6.778;2023-04-25T06:33:43;10.70;;;2.72;;
67696;SDS011;54486;51.442;6.778;2023-04-25T06:36:11;8.93;;;2.93;;
67696;SDS011;54486;51.442;6.778;2023-04-25T06:38:39;9.87;;;2.80;;
67696;SDS011;54486;51.442;6.778;2023-04-25T06:41:07;11.23;;;3.40;;
67696;SDS011;54486;51.442;6.778;2023-04-25T06:43:34;13.25;;;3.50;;
67696;SDS011;54486;51.442;6.778;2023-04-25T06:46:01;10.82;;;3.08;;
67696;SDS011;54486;51.442;6.778;2023-04-25T06:48:28;10.88;;;2.78;;
67696;SDS011;54486;51.442;6.778;2023-04-25T06:50:55;7.45;;;2.30;;
67696;SDS011;54486;51.442;6.778;2023-04-25T06:53:23;7.90;;;2.20;;
67696;SDS011;54486;51.442;6.778;2023-04-25T06:55:50;8.55;;;2.13;;
67696;SDS011;54486;51.442;6.778;2023-04-25T06:58:18;8.00;;;2.40;;
67696;SDS011;54486;51.442;6.778;2023-04-25T07:00:45;9.18;;;2.50;;
67696;SDS011;54486;51.442;6.778;2023-04-25T07:03:12;8.43;;;2.60;;
67696;SDS011;54486;51.442;6.778;2023-04-25T07:05:39;10.18;;;2.95;;
67696;SDS011;54486;51.442;6.778;2023-04-25T07:08:06;9.25;;;2.90;;
67696;SDS011;54486;51.442;6.778;2023-04-25T07:10:34;10.60;;;2.28;;
67696;SDS011;54486;51.442;6.778;2023-04-25T07:13:01;10.40;;;3.35;;
67696;SDS011;54486;51.442;6.778;2023-04-25T07:15:29;7.88;;;2.83;;
67696;SDS011;54486;51.442;6.778;2023-04-25T07:17:56;10.45;;;3.63;;
67696;SDS011;54486;51.442;6.778;2023-04-25T07:20:23;10.63;;;3.35;;
67696;SDS011;54486;51.442;6.778;2023-04-25T07:22:50;11.40;;;3.88;;
67696;SDS011;54486;51.442;6.778;2023-04-25T07:25:17;12.98;;;3.00;;
67696;SDS011;54486;51.442;6.778;2023-04-25T07:27:44;10.83;;;2.93;;
67696;SDS011;54486;51.442;6.778;2023-04-25T07:30:12;11.15;;;3.85;;
67696;SDS011;54486;51.442;6.778;2023-04-25T07:32:39;9.35;;;2.78;;
67696;SDS011;54486;51.442;6.778;2023-04-25T07:35:06;9.03;;;3.17;;
67696;SDS011;54486;51.442;6.778;2023-04-25T07:37:34;8.85;;;3.10;;
67696;SDS011;54486;51.442;6.778;2023-04-25T07:40:02;9.60;;;3.07;;
67696;SDS011;54486;51.442;6.778;2023-04-25T07:42:30;9.32;;;2.83;;
67696;SDS011;54486;51.442;6.778;2023-04-25T07:44:58;8.38;;;2.72;;
67696;SDS011;54486;51.442;6.778;2023-04-25T07:47:25;10.43;;;2.90;;
67696;SDS011;54486;51.442;6.778;2023-04-25T07:49:52;8.90;;;2.38;;
67696;SDS011;54486;51.442;6.778;2023-04-25T07:52:19;9.73;;;2.78;;
67696;SDS011;54486;51.442;6.778;2023-04-25T07:54:46;9.30;;;2.72;;
67696;SDS011;54486;51.442;6.778;2023-04-25T07:57:14;11.20;;;3.00;;
67696;SDS011;54486;51.442;6.778;2023-04-25T07:59:41;10.02;;;2.85;;
67696;SDS011;54486;51.442;6.778;2023-04-25T08:02:08;10.03;;;3.20;;
67696;SDS011;54486;51.442;6.778;2023-04-25T08:04:35;9.90;;;3.28;;
67696;SDS011;54486;51.442;6.778;2023-04-25T08:07:02;8.20;;;2.97;;
67696;SDS011;54486;51.442;6.778;2023-04-25T08:09:29;8.60;;;3.28;;
67696;SDS011;54486;51.442;6.778;2023-04-25T08:12:00;13.10;;;3.22;;
67696;SDS011;54486;51.442;6.778;2023-04-25T08:14:29;8.85;;;3.08;;
67696;SDS011;54486;51.442;6.778;2023-04-25T08:17:02;9.48;;;2.53;;
67696;SDS011;54486;51.442;6.778;2023-04-25T08:19:30;7.43;;;2.00;;
67696;SDS011;54486;51.442;6.778;2023-04-25T08:21:58;7.28;;;1.95;;
67696;SDS011;54486;51.442;6.778;2023-04-25T08:24:25;9.68;;;2.78;;
67696;SDS011;54486;51.442;6.778;2023-04-25T08:26:52;9.43;;;2.88;;
67696;SDS011;54486;51.442;6.778;2023-04-25T08:29:20;11.02;;;2.92;;
67696;SDS011;54486;51.442;6.778;2023-04-25T08:31:47;7.85;;;2.35;;
67696;SDS011;54486;51.442;6.778;2023-04-25T08:34:14;9.07;;;2.80;;
67696;SDS011;54486;51.442;6.778;2023-04-25T08:36:42;9.90;;;2.05;;
67696;SDS011;54486;51.442;6.778;2023-04-25T08:39:09;8.90;;;2.13;;
67696;SDS011;54486;51.442;6.778;2023-04-25T08:41:37;6.22;;;1.85;;
67696;SDS011;54486;51.442;6.778;2023-04-25T08:44:04;9.25;;;2.20;;
67696;SDS011;54486;51.442;6.778;2023-04-25T08:46:31;6.22;;;1.63;;
67696;SDS011;54486;51.442;6.778;2023-04-25T08:49:02;6.57;;;1.70;;
67696;SDS011;54486;51.442;6.778;2023-04-25T08:51:31;8.23;;;1.60;;
67696;SDS011;54486;51.442;6.778;2023-04-25T08:54:09;5.35;;;1.52;;
67696;SDS011;54486;51.442;6.778;2023-04-25T08:56:56;5.43;;;1.77;;
67696;SDS011;54486;51.442;6.778;2023-04-25T08:59:25;5.32;;;1.65;;
67696;SDS011;54486;51.442;6.778;2023-04-25T09:01:52;7.03;;;1.70;;
67696;SDS011;54486;51.442;6.778;2023-04-25T09:04:19;6.60;;;1.85;;
67696;SDS011;54486;51.442;6.778;2023-04-25T09:06:47;6.15;;;1.85;;
67696;SDS011;54486;51.442;6.778;2023-04-25T09:09:14;7.15;;;1.42;;
67696;SDS011;54486;51.442;6.778;2023-04-25T09:11:42;7.20;;;2.10;;
67696;SDS011;54486;51.442;6.778;2023-04-25T09:14:13;8.10;;;1.88;;
67696;SDS011;54486;51.442;6.778;2023-04-25T09:19:23;7.13;;;2.03;;
67696;SDS011;54486;51.442;6.778;2023-04-25T09:22:05;7.45;;;1.85;;
67696;SDS011;54486;51.442;6.778;2023-04-25T09:24:37;8.50;;;2.00;;
67696;SDS011;54486;51.442;6.778;2023-04-25T09:27:10;6.45;;;1.63;;
67696;SDS011;54486;51.442;6.778;2023-04-25T09:29:40;7.65;;;1.75;;
67696;SDS011;54486;51.442;6.778;2023-04-25T09:32:22;5.20;;;1.58;;
67696;SDS011;54486;51.442;6.778;2023-04-25T09:34:51;7.13;;;1.88;;
67696;SDS011;54486;51.442;6.778;2023-04-25T09:39:49;5.72;;;1.42;;
67696;SDS011;54486;51.442;6.778;2023-04-25T09:42:21;6.05;;;1.75;;
67696;SDS011;54486;51.442;6.778;2023-04-25T09:44:52;5.43;;;1.70;;
67696;SDS011;54486;51.442;6.778;2023-04-25T09:47:22;6.97;;;1.58;;
67696;SDS011;54486;51.442;6.778;2023-04-25T09:49:50;6.78;;;1.60;;
67696;SDS011;54486;51.442;6.778;2023-04-25T09:52:20;7.63;;;1.50;;
67696;SDS011;54486;51.442;6.778;2023-04-25T09:54:51;6.18;;;1.48;;
67696;SDS011;54486;51.442;6.778;2023-04-25T09:57:19;5.95;;;1.60;;
67696;SDS011;54486;51.442;6.778;2023-04-25T09:59:48;6.93;;;1.53;;
67696;SDS011;54486;51.442;6.778;2023-04-25T10:02:17;6.28;;;1.60;;
67696;SDS011;54486;51.442;6.778;2023-04-25T10:04:48;5.15;;;1.10;;
67696;SDS011;54486;51.442;6.778;2023-04-25T10:07:22;5.50;;;1.35;;
67696;SDS011;54486;51.442;6.778;2023-04-25T10:10:02;5.45;;;1.50;;
67696;SDS011;54486;51.442;6.778;2023-04-25T10:12:31;5.22;;;1.27;;
67696;SDS011;54486;51.442;6.778;2023-04-25T10:15:00;6.55;;;1.60;;
67696;SDS011;54486;51.442;6.778;2023-04-25T10:17:29;5.60;;;1.50;;
67696;SDS011;54486;51.442;6.778;2023-04-25T10:19:59;8.82;;;1.70;;
67696;SDS011;54486;51.442;6.778;2023-04-25T10:22:40;5.97;;;1.50;;
67696;SDS011;54486;51.442;6.778;2023-04-25T10:25:09;5.30;;;1.52;;
67696;SDS011;54486;51.442;6.778;2023-04-25T10:27:38;5.47;;;1.30;;
67696;SDS011;54486;51.442;6.778;2023-04-25T10:30:10;5.90;;;1.38;;
67696;SDS011;54486;51.442;6.778;2023-04-25T10:32:42;6.88;;;1.63;;
67696;SDS011;54486;51.442;6.778;2023-04-25T10:35:10;4.80;;;1.50;;
67696;SDS011;54486;51.442;6.778;2023-04-25T10:37:58;5.20;;;1.40;;
67696;SDS011;54486;51.442;6.778;2023-04-25T10:40:27;6.07;;;1.52;;
67696;SDS011;54486;51.442;6.778;2023-04-25T10:42:54;4.45;;;1.20;;
67696;SDS011;54486;51.442;6.778;2023-04-25T10:45:24;8.15;;;1.80;;
67696;SDS011;54486;51.442;6.778;2023-04-25T10:47:52;6.78;;;1.42;;
67696;SDS011;54486;51.442;6.778;2023-04-25T10:50:19;6.00;;;1.38;;
67696;SDS011;54486;51.442;6.778;2023-04-25T10:52:46;6.85;;;1.55;;
67696;SDS011;54486;51.442;6.778;2023-04-25T10:55:13;5.47;;;1.27;;
67696;SDS011;54486;51.442;6.778;2023-04-25T10:57:44;4.75;;;1.40;;
67696;SDS011;54486;51.442;6.778;2023-04-25T11:00:17;5.38;;;1.40;;
67696;SDS011;54486;51.442;6.778;2023-04-25T11:02:47;5.75;;;1.17;;
67696;SDS011;54486;51.442;6.778;2023-04-25T11:05:32;6.70;;;1.50;;
67696;SDS011;54486;51.442;6.778;2023-04-25T11:08:10;5.43;;;1.45;;
67696;SDS011;54486;51.442;6.778;2023-04-25T11:10:40;5.18;;;1.33;;
67696;SDS011;54486;51.442;6.778;2023-04-25T11:13:08;6.37;;;1.60;;
67696;SDS011;54486;51.442;6.778;2023-04-25T11:15:36;4.90;;;1.40;;
67696;SDS011;54486;51.442;6.778;2023-04-25T11:18:03;6.30;;;1.50;;
67696;SDS011;54486;51.442;6.778;2023-04-25T11:20:33;6.85;;;1.60;;
67696;SDS011;54486;51.442;6.778;2023-04-25T11:23:01;5.40;;;1.48;;
67696;SDS011;54486;51.442;6.778;2023-04-25T11:25:32;5.47;;;1.25;;
67696;SDS011;54486;51.442;6.778;2023-04-25T11:28:03;5.13;;;1.50;;
67696;SDS011;54486;51.442;6.778;2023-04-25T11:30:30;6.20;;;1.77;;
67696;SDS011;54486;51.442;6.778;2023-04-25T11:32:57;5.82;;;1.73;;
67696;SDS011;54486;51.442;6.778;2023-04-25T11:35:24;6.45;;;1.50;;
67696;SDS011;54486;51.442;6.778;2023-04-25T11:37:52;7.28;;;2.13;;
67696;SDS011;54486;51.442;6.778;2023-04-25T11:40:19;6.15;;;1.70;;
67696;SDS011;54486;51.442;6.778;2023-04-25T11:42:46;6.00;;;1.70;;
67696;SDS011;54486;51.442;6.778;2023-04-25T11:45:14;6.07;;;1.80;;
67696;SDS011;54486;51.442;6.778;2023-04-25T11:47:42;6.60;;;1.65;;
67696;SDS011;54486;51.442;6.778;2023-04-25T11:50:09;8.38;;;2.10;;
67696;SDS011;54486;51.442;6.778;2023-04-25T11:52:44;5.95;;;1.65;;
67696;SDS011;54486;51.442;6.778;2023-04-25T11:55:16;6.70;;;1.67;;
67696;SDS011;54486;51.442;6.778;2023-04-25T11:57:45;6.07;;;1.60;;
67696;SDS011;54486;51.442;6.778;2023-04-25T12:00:17;7.90;;;1.88;;
67696;SDS011;54486;51.442;6.778;2023-04-25T12:02:47;7.18;;;1.92;;
67696;SDS011;54486;51.442;6.778;2023-04-25T12:05:19;6.97;;;1.60;;
67696;SDS011;54486;51.442;6.778;2023-04-25T12:08:20;5.70;;;1.70;;
67696;SDS011;54486;51.442;6.778;2023-04-25T12:10:46;4.85;;;1.35;;
67696;SDS011;54486;51.442;6.778;2023-04-25T12:13:20;5.50;;;1.70;;
67696;SDS011;54486;51.442;6.778;2023-04-25T12:15:53;5.75;;;1.90;;
67696;SDS011;54486;51.442;6.778;2023-04-25T12:18:24;6.55;;;1.90;;
67696;SDS011;54486;51.442;6.778;2023-04-25T12:20:55;7.63;;;1.85;;
67696;SDS011;54486;51.442;6.778;2023-04-25T12:23:29;5.95;;;1.85;;
67696;SDS011;54486;51.442;6.778;2023-04-25T12:25:57;6.47;;;1.73;;
67696;SDS011;54486;51.442;6.778;2023-04-25T12:28:24;7.68;;;2.05;;
67696;SDS011;54486;51.442;6.778;2023-04-25T12:33:24;6.05;;;1.77;;
67696;SDS011;54486;51.442;6.778;2023-04-25T12:35:53;6.23;;;1.40;;
67696;SDS011;54486;51.442;6.778;2023-04-25T12:38:28;5.50;;;1.70;;
67696;SDS011;54486;51.442;6.778;2023-04-25T12:40:58;6.50;;;1.67;;
67696;SDS011;54486;51.442;6.778;2023-04-25T12:43:25;6.18;;;1.52;;
67696;SDS011;54486;51.442;6.778;2023-04-25T12:45:52;5.30;;;1.23;;
67696;SDS011;54486;51.442;6.778;2023-04-25T12:48:21;6.03;;;1.60;;
67696;SDS011;54486;51.442;6.778;2023-04-25T12:50:50;5.07;;;1.50;;
67696;SDS011;54486;51.442;6.778;2023-04-25T12:53:19;4.30;;;1.55;;
67696;SDS011;54486;51.442;6.778;2023-04-25T12:55:48;6.47;;;1.50;;
67696;SDS011;54486;51.442;6.778;2023-04-25T12:58:15;5.25;;;1.55;;
67696;SDS011;54486;51.442;6.778;2023-04-25T13:00:44;6.18;;;1.38;;
67696;SDS011;54486;51.442;6.778;2023-04-25T13:03:12;6.28;;;1.55;;
67696;SDS011;54486;51.442;6.778;2023-04-25T13:05:39;5.75;;;1.50;;
67696;SDS011;54486;51.442;6.778;2023-04-25T13:08:07;5.05;;;1.17;;
67696;SDS011;54486;51.442;6.778;2023-04-25T13:10:35;5.72;;;1.27;;
67696;SDS011;54486;51.442;6.778;2023-04-25T13:13:03;5.45;;;1.33;;
67696;SDS011;54486;51.442;6.778;2023-04-25T13:15:30;7.68;;;1.65;;
67696;SDS011;54486;51.442;6.778;2023-04-25T13:17:57;6.78;;;1.90;;
67696;SDS011;54486;51.442;6.778;2023-04-25T13:20:24;5.85;;;1.35;;
67696;SDS011;54486;51.442;6.778;2023-04-25T13:22:51;5.65;;;1.67;;
67696;SDS011;54486;51.442;6.778;2023-04-25T13:25:18;5.63;;;1.35;;
67696;SDS011;54486;51.442;6.778;2023-04-25T13:27:45;5.43;;;1.48;;
67696;SDS011;54486;51.442;6.778;2023-04-25T13:30:13;5.93;;;1.40;;
67696;SDS011;54486;51.442;6.778;2023-04-25T13:32:40;6.03;;;1.40;;
67696;SDS011;54486;51.442;6.778;2023-04-25T13:35:08;6.65;;;1.60;;
67696;SDS011;54486;51.442;6.778;2023-04-25T13:37:37;4.93;;;1.17;;
67696;SDS011;54486;51.442;6.778;2023-04-25T13:40:06;4.90;;;1.40;;
67696;SDS011;54486;51.442;6.778;2023-04-25T13:42:38;5.30;;;1.23;;
67696;SDS011;54486;51.442;6.778;2023-04-25T13:45:05;5.00;;;1.30;;
67696;SDS011;54486;51.442;6.778;2023-04-25T13:47:36;5.37;;;1.80;;
67696;SDS011;54486;51.442;6.778;2023-04-25T13:50:03;5.32;;;1.30;;
67696;SDS011;54486;51.442;6.778;2023-04-25T13:52:35;6.45;;;1.30;;
67696;SDS011;54486;51.442;6.778;2023-04-25T13:55:03;5.47;;;1.42;;
67696;SDS011;54486;51.442;6.778;2023-04-25T13:57:30;5.43;;;1.30;;
67696;SDS011;54486;51.442;6.778;2023-04-25T13:59:59;5.47;;;1.17;;
67696;SDS011;54486;51.442;6.778;2023-04-25T14:02:31;4.70;;;1.17;;
67696;SDS011;54486;51.442;6.778;2023-04-25T14:04:58;5.38;;;1.23;;
67696;SDS011;54486;51.442;6.778;2023-04-25T14:07:25;4.95;;;1.20;;
67696;SDS011;54486;51.442;6.778;2023-04-25T14:09:54;4.43;;;1.40;;
67696;SDS011;54486;51.442;6.778;2023-04-25T14:12:20;5.93;;;1.38;;
67696;SDS011;54486;51.442;6.778;2023-04-25T14:14:47;5.00;;;1.40;;
67696;SDS011;54486;51.442;6.778;2023-04-25T14:17:15;5.27;;;1.10;;
67696;SDS011;54486;51.442;6.778;2023-04-25T14:19:42;4.47;;;1.20;;
67696;SDS011;54486;51.442;6.778;2023-04-25T14:22:12;4.35;;;1.30;;
67696;SDS011;54486;51.442;6.778;2023-04-25T14:24:39;4.77;;;1.10;;
67696;SDS011;54486;51.442;6.778;2023-04-25T14:27:07;4.93;;;1.20;;
67696;SDS011;54486;51.442;6.778;2023-04-25T14:29:34;4.60;;;1.30;;
67696;SDS011;54486;51.442;6.778;2023-04-25T14:32:01;3.70;;;0.95;;
67696;SDS011;54486;51.442;6.778;2023-04-25T14:34:28;3.85;;;1.00;;
67696;SDS011;54486;51.442;6.778;2023-04-25T14:36:56;4.87;;;1.27;;
67696;SDS011;54486;51.442;6.778;2023-04-25T14:39:23;3.85;;;0.90;;
67696;SDS011;54486;51.442;6.778;2023-04-25T14:41:50;4.35;;;1.38;;
67696;SDS011;54486;51.442;6.778;2023-04-25T14:44:16;5.40;;;1.23;;
67696;SDS011;54486;51.442;6.778;2023-04-25T14:46:44;6.10;;;1.55;;
67696;SDS011;54486;51.442;6.778;2023-04-25T14:49:11;5.80;;;1.40;;
67696;SDS011;54486;51.442;6.778;2023-04-25T14:51:38;4.60;;;1.25;;
67696;SDS011;54486;51.442;6.778;2023-04-25T14:54:05;4.95;;;1.50;;
67696;SDS011;54486;51.442;6.778;2023-04-25T14:56:33;6.43;;;1.40;;
67696;SDS011;54486;51.442;6.778;2023-04-25T14:59:00;4.88;;;1.30;;